sensor_id;sensor_type;location;lat;lon;timestamp;temperature;humidity
10660;DHT22;5378;53.206;13.316;2023-05-02T00:01:40;10.60;99.90
10660;DHT22;5378;53.206;13.316;2023-05-02T00:04:29;10.60;99.90
10660;DHT22;5378;53.206;13.316;2023-05-02T00:07:16;10.60;99.90
10660;DHT22;5378;53.206;13.316;2023-05-02T00:10:04;10.60;99.90
10660;DHT22;5378;53.206;13.316;2023-05-02T00:12:51;10.50;99.90
10660;DHT22;5378;53.206;13.316;2023-05-02T00:15:38;10.50;99.90
10660;DHT22;5378;53.206;13.316;2023-05-02T00:18:25;10.30;99.90
10660;DHT22;5378;53.206;13.316;2023-05-02T00:21:14;10.30;99.90
10660;DHT22;5378;53.206;13.316;2023-05-02T00:24:00;10.30;99.90
10660;DHT22;5378;53.206;13.316;2023-05-02T00:26:47;10.20;99.90
10660;DHT22;5378;53.206;13.316;2023-05-02T00:29:35;10.20;99.90
10660;DHT22;5378;53.206;13.316;2023-05-02T00:32:22;10.20;99.90
10660;DHT22;5378;53.206;13.316;2023-05-02T00:35:09;10.10;99.90
10660;DHT22;5378;53.206;13.316;2023-05-02T00:37:59;10.20;99.90
10660;DHT22;5378;53.206;13.316;2023-05-02T00:40:48;10.10;99.90
10660;DHT22;5378;53.206;13.316;2023-05-02T00:43:35;10.00;99.90
10660;DHT22;5378;53.206;13.316;2023-05-02T00:46:24;9.90;99.90
10660;DHT22;5378;53.206;13.316;2023-05-02T00:49:11;9.80;99.90
10660;DHT22;5378;53.206;13.316;2023-05-02T00:51:58;9.80;99.90
10660;DHT22;5378;53.206;13.316;2023-05-02T00:54:47;9.80;99.90
10660;DHT22;5378;53.206;13.316;2023-05-02T00:57:35;9.80;99.90
10660;DHT22;5378;53.206;13.316;2023-05-02T01:00:27;9.70;99.90
10660;DHT22;5378;53.206;13.316;2023-05-02T01:03:24;9.60;99.90
10660;DHT22;5378;53.206;13.316;2023-05-02T01:06:30;9.60;99.90
10660;DHT22;5378;53.206;13.316;2023-05-02T01:09:32;9.70;99.90
10660;DHT22;5378;53.206;13.316;2023-05-02T01:12:26;9.70;99.90
10660;DHT22;5378;53.206;13.316;2023-05-02T01:15:18;9.60;99.90
10660;DHT22;5378;53.206;13.316;2023-05-02T01:18:07;9.50;99.90
10660;DHT22;5378;53.206;13.316;2023-05-02T01:20:58;9.50;99.90
10660;DHT22;5378;53.206;13.316;2023-05-02T01:23:56;9.50;99.90
10660;DHT22;5378;53.206;13.316;2023-05-02T01:26:51;9.50;99.90
10660;DHT22;5378;53.206;13.316;2023-05-02T01:29:43;9.70;99.90
10660;DHT22;5378;53.206;13.316;2023-05-02T01:32:32;9.80;99.90
10660;DHT22;5378;53.206;13.316;2023-05-02T01:35:22;9.80;99.90
10660;DHT22;5378;53.206;13.316;2023-05-02T01:38:13;9.90;99.90
10660;DHT22;5378;53.206;13.316;2023-05-02T01:41:00;10.00;99.90
10660;DHT22;5378;53.206;13.316;2023-05-02T01:43:50;10.00;99.90
10660;DHT22;5378;53.206;13.316;2023-05-02T01:46:40;10.10;99.90
10660;DHT22;5378;53.206;13.316;2023-05-02T01:49:28;10.10;99.90
10660;DHT22;5378;53.206;13.316;2023-05-02T01:52:20;10.20;99.90
10660;DHT22;5378;53.206;13.316;2023-05-02T01:55:11;10.20;99.90
10660;DHT22;5378;53.206;13.316;2023-05-02T01:58:00;10.20;99.90
10660;DHT22;5378;53.206;13.316;2023-05-02T02:00:52;10.10;99.90
10660;DHT22;5378;53.206;13.316;2023-05-02T02:03:41;10.10;99.90
10660;DHT22;5378;53.206;13.316;2023-05-02T02:06:28;10.10;99.90
10660;DHT22;5378;53.206;13.316;2023-05-02T02:09:17;10.00;99.90
10660;DHT22;5378;53.206;13.316;2023-05-02T02:12:06;10.00;99.90
10660;DHT22;5378;53.206;13.316;2023-05-02T02:14:56;9.90;99.90
10660;DHT22;5378;53.206;13.316;2023-05-02T02:17:48;9.90;99.90
10660;DHT22;5378;53.206;13.316;2023-05-02T02:20:38;9.90;99.90
10660;DHT22;5378;53.206;13.316;2023-05-02T02:23:29;9.90;99.90
10660;DHT22;5378;53.206;13.316;2023-05-02T02:26:20;9.80;99.90
10660;DHT22;5378;53.206;13.316;2023-05-02T02:29:08;9.80;99.90
10660;DHT22;5378;53.206;13.316;2023-05-02T02:31:54;9.80;99.90
10660;DHT22;5378;53.206;13.316;2023-05-02T02:34:42;9.80;99.90
10660;DHT22;5378;53.206;13.316;2023-05-02T02:37:32;9.80;99.90
10660;DHT22;5378;53.206;13.316;2023-05-02T02:40:25;9.80;99.90
10660;DHT22;5378;53.206;13.316;2023-05-02T02:43:19;9.70;99.90
10660;DHT22;5378;53.206;13.316;2023-05-02T02:46:15;9.70;99.90
10660;DHT22;5378;53.206;13.316;2023-05-02T02:49:14;9.70;99.90
10660;DHT22;5378;53.206;13.316;2023-05-02T02:52:08;9.70;99.90
10660;DHT22;5378;53.206;13.316;2023-05-02T02:55:01;9.70;99.90
10660;DHT22;5378;53.206;13.316;2023-05-02T02:57:58;9.70;99.90
10660;DHT22;5378;53.206;13.316;2023-05-02T03:00:46;9.80;99.90
10660;DHT22;5378;53.206;13.316;2023-05-02T03:03:35;9.80;99.90
10660;DHT22;5378;53.206;13.316;2023-05-02T03:06:23;9.80;99.90
10660;DHT22;5378;53.206;13.316;2023-05-02T03:09:14;9.90;99.90
10660;DHT22;5378;53.206;13.316;2023-05-02T03:12:06;9.90;99.90
10660;DHT22;5378;53.206;13.316;2023-05-02T03:15:01;9.80;99.90
10660;DHT22;5378;53.206;13.316;2023-05-02T03:17:49;9.70;99.90
10660;DHT22;5378;53.206;13.316;2023-05-02T03:20:36;9.70;99.90
10660;DHT22;5378;53.206;13.316;2023-05-02T03:23:23;9.70;99.90
10660;DHT22;5378;53.206;13.316;2023-05-02T03:26:12;9.60;99.90
10660;DHT22;5378;53.206;13.316;2023-05-02T03:29:01;9.60;99.90
10660;DHT22;5378;53.206;13.316;2023-05-02T03:31:54;9.60;99.90
10660;DHT22;5378;53.206;13.316;2023-05-02T03:34:41;9.50;99.90
10660;DHT22;5378;53.206;13.316;2023-05-02T03:37:29;9.50;99.90
10660;DHT22;5378;53.206;13.316;2023-05-02T03:40:18;9.60;99.90
10660;DHT22;5378;53.206;13.316;2023-05-02T03:43:06;9.70;99.90
10660;DHT22;5378;53.206;13.316;2023-05-02T03:45:55;9.70;99.90
10660;DHT22;5378;53.206;13.316;2023-05-02T03:48:43;9.60;99.90
10660;DHT22;5378;53.206;13.316;2023-05-02T03:51:31;9.60;99.90
10660;DHT22;5378;53.206;13.316;2023-05-02T03:54:20;9.60;99.90
10660;DHT22;5378;53.206;13.316;2023-05-02T03:57:08;9.70;99.90
10660;DHT22;5378;53.206;13.316;2023-05-02T03:59:55;9.70;99.90
10660;DHT22;5378;53.206;13.316;2023-05-02T04:02:48;9.70;99.90
10660;DHT22;5378;53.206;13.316;2023-05-02T04:05:38;9.90;99.90
10660;DHT22;5378;53.206;13.316;2023-05-02T04:08:26;10.00;99.90
10660;DHT22;5378;53.206;13.316;2023-05-02T04:11:14;10.30;99.90
10660;DHT22;5378;53.206;13.316;2023-05-02T04:14:02;10.60;99.90
10660;DHT22;5378;53.206;13.316;2023-05-02T04:16:49;10.70;99.90
10660;DHT22;5378;53.206;13.316;2023-05-02T04:19:44;10.70;99.90
10660;DHT22;5378;53.206;13.316;2023-05-02T04:22:32;10.60;99.90
10660;DHT22;5378;53.206;13.316;2023-05-02T04:25:22;10.80;99.90
10660;DHT22;5378;53.206;13.316;2023-05-02T04:28:12;11.30;99.90
10660;DHT22;5378;53.206;13.316;2023-05-02T04:30:58;11.80;99.90
10660;DHT22;5378;53.206;13.316;2023-05-02T04:33:45;12.50;99.90
10660;DHT22;5378;53.206;13.316;2023-05-02T04:36:38;13.20;99.90
10660;DHT22;5378;53.206;13.316;2023-05-02T04:39:27;13.80;99.90
10660;DHT22;5378;53.206;13.316;2023-05-02T04:42:19;14.00;99.90
10660;DHT22;5378;53.206;13.316;2023-05-02T04:45:21;14.20;99.90
10660;DHT22;5378;53.206;13.316;2023-05-02T04:48:09;14.20;99.90
10660;DHT22;5378;53.206;13.316;2023-05-02T04:50:56;14.30;99.90
10660;DHT22;5378;53.206;13.316;2023-05-02T04:53:44;14.80;99.90
10660;DHT22;5378;53.206;13.316;2023-05-02T04:56:32;15.40;99.90
10660;DHT22;5378;53.206;13.316;2023-05-02T04:59:19;16.20;99.90
10660;DHT22;5378;53.206;13.316;2023-05-02T05:02:06;16.80;99.90
10660;DHT22;5378;53.206;13.316;2023-05-02T05:04:57;17.00;99.90
10660;DHT22;5378;53.206;13.316;2023-05-02T05:07:44;16.20;99.90
10660;DHT22;5378;53.206;13.316;2023-05-02T05:10:33;15.30;99.90
10660;DHT22;5378;53.206;13.316;2023-05-02T05:13:21;14.50;99.90
10660;DHT22;5378;53.206;13.316;2023-05-02T05:16:08;14.00;99.90
10660;DHT22;5378;53.206;13.316;2023-05-02T05:18:56;13.60;99.90
10660;DHT22;5378;53.206;13.316;2023-05-02T05:21:43;13.30;99.90
10660;DHT22;5378;53.206;13.316;2023-05-02T05:24:33;13.10;99.90
10660;DHT22;5378;53.206;13.316;2023-05-02T05:27:22;12.90;99.90
10660;DHT22;5378;53.206;13.316;2023-05-02T05:30:10;12.80;99.90
10660;DHT22;5378;53.206;13.316;2023-05-02T05:32:58;12.90;99.90
10660;DHT22;5378;53.206;13.316;2023-05-02T05:35:45;12.90;99.90
10660;DHT22;5378;53.206;13.316;2023-05-02T05:38:32;13.00;99.90
10660;DHT22;5378;53.206;13.316;2023-05-02T05:41:21;12.90;99.90
10660;DHT22;5378;53.206;13.316;2023-05-02T05:44:16;12.90;99.90
10660;DHT22;5378;53.206;13.316;2023-05-02T05:47:04;13.20;99.90
10660;DHT22;5378;53.206;13.316;2023-05-02T05:49:52;14.00;99.90
10660;DHT22;5378;53.206;13.316;2023-05-02T05:52:41;15.80;99.90
10660;DHT22;5378;53.206;13.316;2023-05-02T05:55:27;17.80;99.90
10660;DHT22;5378;53.206;13.316;2023-05-02T05:58:15;19.50;99.90
10660;DHT22;5378;53.206;13.316;2023-05-02T06:01:05;20.60;99.90
10660;DHT22;5378;53.206;13.316;2023-05-02T06:03:52;21.10;99.90
10660;DHT22;5378;53.206;13.316;2023-05-02T06:06:39;20.20;99.90
10660;DHT22;5378;53.206;13.316;2023-05-02T06:09:26;19.50;99.90
10660;DHT22;5378;53.206;13.316;2023-05-02T06:12:13;18.70;99.90
10660;DHT22;5378;53.206;13.316;2023-05-02T06:15:01;17.70;99.90
10660;DHT22;5378;53.206;13.316;2023-05-02T06:17:51;16.60;99.90
10660;DHT22;5378;53.206;13.316;2023-05-02T06:20:38;15.90;99.90
10660;DHT22;5378;53.206;13.316;2023-05-02T06:23:25;15.30;99.90
10660;DHT22;5378;53.206;13.316;2023-05-02T06:26:12;14.70;99.90
10660;DHT22;5378;53.206;13.316;2023-05-02T06:28:59;14.50;99.90
10660;DHT22;5378;53.206;13.316;2023-05-02T06:31:47;14.20;99.90
10660;DHT22;5378;53.206;13.316;2023-05-02T06:34:37;14.00;99.90
10660;DHT22;5378;53.206;13.316;2023-05-02T06:37:24;14.10;99.90
10660;DHT22;5378;53.206;13.316;2023-05-02T06:40:11;14.10;99.90
10660;DHT22;5378;53.206;13.316;2023-05-02T06:42:59;14.20;99.90
10660;DHT22;5378;53.206;13.316;2023-05-02T06:45:46;14.20;99.90
10660;DHT22;5378;53.206;13.316;2023-05-02T06:48:34;14.10;99.90
10660;DHT22;5378;53.206;13.316;2023-05-02T06:51:22;14.00;99.90
10660;DHT22;5378;53.206;13.316;2023-05-02T06:54:09;13.70;99.90
10660;DHT22;5378;53.206;13.316;2023-05-02T06:56:59;13.70;99.90
10660;DHT22;5378;53.206;13.316;2023-05-02T06:59:47;13.80;99.90
10660;DHT22;5378;53.206;13.316;2023-05-02T07:02:34;13.80;99.90
10660;DHT22;5378;53.206;13.316;2023-05-02T07:05:21;13.70;99.90
10660;DHT22;5378;53.206;13.316;2023-05-02T07:08:10;13.40;99.90
10660;DHT22;5378;53.206;13.316;2023-05-02T07:10:57;13.40;99.90
10660;DHT22;5378;53.206;13.316;2023-05-02T07:13:44;13.30;99.90
10660;DHT22;5378;53.206;13.316;2023-05-02T07:16:31;13.20;99.90
10660;DHT22;5378;53.206;13.316;2023-05-02T07:19:19;13.10;99.90
10660;DHT22;5378;53.206;13.316;2023-05-02T07:22:06;12.90;99.90
10660;DHT22;5378;53.206;13.316;2023-05-02T07:24:58;12.90;99.90
10660;DHT22;5378;53.206;13.316;2023-05-02T07:27:45;12.90;99.90
10660;DHT22;5378;53.206;13.316;2023-05-02T07:30:32;12.80;99.90
10660;DHT22;5378;53.206;13.316;2023-05-02T07:33:19;12.70;99.90
10660;DHT22;5378;53.206;13.316;2023-05-02T07:36:06;12.70;99.90
10660;DHT22;5378;53.206;13.316;2023-05-02T07:38:53;12.50;99.90
10660;DHT22;5378;53.206;13.316;2023-05-02T07:41:41;12.50;99.90
10660;DHT22;5378;53.206;13.316;2023-05-02T07:44:28;12.50;99.90
10660;DHT22;5378;53.206;13.316;2023-05-02T07:47:15;12.90;99.90
10660;DHT22;5378;53.206;13.316;2023-05-02T07:50:02;13.40;99.90
10660;DHT22;5378;53.206;13.316;2023-05-02T07:52:49;13.70;99.90
10660;DHT22;5378;53.206;13.316;2023-05-02T07:55:36;14.00;99.90
10660;DHT22;5378;53.206;13.316;2023-05-02T07:58:25;13.90;99.90
10660;DHT22;5378;53.206;13.316;2023-05-02T08:01:11;13.20;99.90
10660;DHT22;5378;53.206;13.316;2023-05-02T08:03:58;12.80;99.90
10660;DHT22;5378;53.206;13.316;2023-05-02T08:06:45;12.70;99.90
10660;DHT22;5378;53.206;13.316;2023-05-02T08:09:32;12.70;99.90
10660;DHT22;5378;53.206;13.316;2023-05-02T08:12:20;12.70;99.90
10660;DHT22;5378;53.206;13.316;2023-05-02T08:15:11;12.50;99.90
10660;DHT22;5378;53.206;13.316;2023-05-02T08:17:58;12.20;99.90
10660;DHT22;5378;53.206;13.316;2023-05-02T08:20:45;12.30;99.90
10660;DHT22;5378;53.206;13.316;2023-05-02T08:23:33;12.20;99.90
10660;DHT22;5378;53.206;13.316;2023-05-02T08:26:20;12.10;99.90
10660;DHT22;5378;53.206;13.316;2023-05-02T08:29:09;12.00;99.90
10660;DHT22;5378;53.206;13.316;2023-05-02T08:31:58;12.00;99.90
10660;DHT22;5378;53.206;13.316;2023-05-02T08:34:45;12.10;99.90
10660;DHT22;5378;53.206;13.316;2023-05-02T08:37:31;12.20;99.90
10660;DHT22;5378;53.206;13.316;2023-05-02T08:40:19;12.00;99.90
10660;DHT22;5378;53.206;13.316;2023-05-02T08:43:15;12.00;99.90
10660;DHT22;5378;53.206;13.316;2023-05-02T08:46:04;12.20;99.90
10660;DHT22;5378;53.206;13.316;2023-05-02T08:48:54;12.10;99.90
10660;DHT22;5378;53.206;13.316;2023-05-02T08:51:44;12.10;99.90
10660;DHT22;5378;53.206;13.316;2023-05-02T08:54:32;12.00;99.90
10660;DHT22;5378;53.206;13.316;2023-05-02T08:57:20;12.10;99.90
10660;DHT22;5378;53.206;13.316;2023-05-02T09:00:07;12.20;99.90
10660;DHT22;5378;53.206;13.316;2023-05-02T09:03:03;12.10;99.90
10660;DHT22;5378;53.206;13.316;2023-05-02T09:05:59;12.10;99.90
10660;DHT22;5378;53.206;13.316;2023-05-02T09:08:48;12.50;99.90
10660;DHT22;5378;53.206;13.316;2023-05-02T09:11:37;12.60;99.90
10660;DHT22;5378;53.206;13.316;2023-05-02T09:14:24;12.70;99.90
10660;DHT22;5378;53.206;13.316;2023-05-02T09:17:11;12.50;99.90
10660;DHT22;5378;53.206;13.316;2023-05-02T09:19:59;12.80;99.90
10660;DHT22;5378;53.206;13.316;2023-05-02T09:22:49;12.60;99.90
10660;DHT22;5378;53.206;13.316;2023-05-02T09:25:36;12.30;99.90
10660;DHT22;5378;53.206;13.316;2023-05-02T09:28:37;12.00;99.90
10660;DHT22;5378;53.206;13.316;2023-05-02T09:31:26;12.20;99.90
10660;DHT22;5378;53.206;13.316;2023-05-02T09:34:23;12.30;99.90
10660;DHT22;5378;53.206;13.316;2023-05-02T09:37:10;12.50;99.90
10660;DHT22;5378;53.206;13.316;2023-05-02T09:40:09;12.70;99.90
10660;DHT22;5378;53.206;13.316;2023-05-02T09:42:57;12.70;99.90
10660;DHT22;5378;53.206;13.316;2023-05-02T09:45:55;12.70;99.90
10660;DHT22;5378;53.206;13.316;2023-05-02T09:48:51;12.70;99.90
10660;DHT22;5378;53.206;13.316;2023-05-02T09:51:38;12.60;99.90
10660;DHT22;5378;53.206;13.316;2023-05-02T09:54:35;12.70;99.90
10660;DHT22;5378;53.206;13.316;2023-05-02T09:57:38;12.90;99.90
10660;DHT22;5378;53.206;13.316;2023-05-02T10:00:42;12.90;99.90
10660;DHT22;5378;53.206;13.316;2023-05-02T10:03:30;13.20;99.90
10660;DHT22;5378;53.206;13.316;2023-05-02T10:06:18;13.50;99.90
10660;DHT22;5378;53.206;13.316;2023-05-02T10:09:08;13.90;99.90
10660;DHT22;5378;53.206;13.316;2023-05-02T10:11:56;14.20;99.90
10660;DHT22;5378;53.206;13.316;2023-05-02T10:14:54;14.20;99.90
10660;DHT22;5378;53.206;13.316;2023-05-02T10:17:47;14.40;99.90
10660;DHT22;5378;53.206;13.316;2023-05-02T10:20:36;14.40;99.90
10660;DHT22;5378;53.206;13.316;2023-05-02T10:23:27;14.40;99.90
10660;DHT22;5378;53.206;13.316;2023-05-02T10:26:15;14.00;99.90
10660;DHT22;5378;53.206;13.316;2023-05-02T10:29:04;14.20;99.90
10660;DHT22;5378;53.206;13.316;2023-05-02T10:31:52;14.00;99.90
10660;DHT22;5378;53.206;13.316;2023-05-02T10:34:40;14.10;99.90
10660;DHT22;5378;53.206;13.316;2023-05-02T10:37:29;13.70;99.90
10660;DHT22;5378;53.206;13.316;2023-05-02T10:40:18;13.50;99.90
10660;DHT22;5378;53.206;13.316;2023-05-02T10:43:05;13.60;99.90
10660;DHT22;5378;53.206;13.316;2023-05-02T10:45:53;13.80;99.90
10660;DHT22;5378;53.206;13.316;2023-05-02T10:48:42;13.50;99.90
10660;DHT22;5378;53.206;13.316;2023-05-02T10:51:45;13.40;99.90
10660;DHT22;5378;53.206;13.316;2023-05-02T10:54:32;13.60;99.90
10660;DHT22;5378;53.206;13.316;2023-05-02T10:57:20;13.80;99.90
10660;DHT22;5378;53.206;13.316;2023-05-02T11:00:20;13.80;99.90
10660;DHT22;5378;53.206;13.316;2023-05-02T11:03:07;13.60;99.90
10660;DHT22;5378;53.206;13.316;2023-05-02T11:06:05;13.40;99.90
10660;DHT22;5378;53.206;13.316;2023-05-02T11:08:52;13.00;99.90
10660;DHT22;5378;53.206;13.316;2023-05-02T11:12:02;12.90;99.90
10660;DHT22;5378;53.206;13.316;2023-05-02T11:14:50;12.90;99.90
10660;DHT22;5378;53.206;13.316;2023-05-02T11:17:57;13.10;99.90
10660;DHT22;5378;53.206;13.316;2023-05-02T11:20:45;13.20;99.90
10660;DHT22;5378;53.206;13.316;2023-05-02T11:23:33;13.40;99.90
10660;DHT22;5378;53.206;13.316;2023-05-02T11:26:22;13.40;99.90
10660;DHT22;5378;53.206;13.316;2023-05-02T11:29:11;13.10;99.90
10660;DHT22;5378;53.206;13.316;2023-05-02T11:31:58;13.20;99.90
10660;DHT22;5378;53.206;13.316;2023-05-02T11:34:45;13.20;99.90
10660;DHT22;5378;53.206;13.316;2023-05-02T11:37:32;13.00;99.90
10660;DHT22;5378;53.206;13.316;2023-05-02T11:40:21;13.20;99.90
10660;DHT22;5378;53.206;13.316;2023-05-02T11:43:12;13.30;99.90
10660;DHT22;5378;53.206;13.316;2023-05-02T11:46:00;13.30;99.90
10660;DHT22;5378;53.206;13.316;2023-05-02T11:48:49;13.50;99.90
10660;DHT22;5378;53.206;13.316;2023-05-02T11:51:36;13.70;99.90
10660;DHT22;5378;53.206;13.316;2023-05-02T11:54:23;13.70;99.90
10660;DHT22;5378;53.206;13.316;2023-05-02T11:57:12;13.70;99.90
10660;DHT22;5378;53.206;13.316;2023-05-02T11:59:59;13.60;99.90
10660;DHT22;5378;53.206;13.316;2023-05-02T12:02:50;13.50;99.90
10660;DHT22;5378;53.206;13.316;2023-05-02T12:05:37;13.70;99.90
10660;DHT22;5378;53.206;13.316;2023-05-02T12:08:26;13.80;99.90
10660;DHT22;5378;53.206;13.316;2023-05-02T12:11:14;13.70;99.90
10660;DHT22;5378;53.206;13.316;2023-05-02T12:14:02;13.80;99.90
10660;DHT22;5378;53.206;13.316;2023-05-02T12:16:50;13.90;99.90
10660;DHT22;5378;53.206;13.316;2023-05-02T12:19:36;13.80;99.90
10660;DHT22;5378;53.206;13.316;2023-05-02T12:22:24;13.80;99.90
10660;DHT22;5378;53.206;13.316;2023-05-02T12:25:12;13.80;99.90
10660;DHT22;5378;53.206;13.316;2023-05-02T12:27:59;13.90;99.90
10660;DHT22;5378;53.206;13.316;2023-05-02T12:30:50;14.10;99.90
10660;DHT22;5378;53.206;13.316;2023-05-02T12:33:41;14.20;99.90
10660;DHT22;5378;53.206;13.316;2023-05-02T12:36:28;14.20;99.90
10660;DHT22;5378;53.206;13.316;2023-05-02T12:39:15;14.30;99.90
10660;DHT22;5378;53.206;13.316;2023-05-02T12:42:09;14.30;99.90
10660;DHT22;5378;53.206;13.316;2023-05-02T12:44:56;14.50;99.90
10660;DHT22;5378;53.206;13.316;2023-05-02T12:47:45;14.30;99.90
10660;DHT22;5378;53.206;13.316;2023-05-02T12:50:36;14.20;99.90
10660;DHT22;5378;53.206;13.316;2023-05-02T12:53:39;14.10;99.90
10660;DHT22;5378;53.206;13.316;2023-05-02T12:56:28;14.20;99.90
10660;DHT22;5378;53.206;13.316;2023-05-02T12:59:25;14.10;99.90
10660;DHT22;5378;53.206;13.316;2023-05-02T13:02:13;13.90;99.90
10660;DHT22;5378;53.206;13.316;2023-05-02T13:05:03;13.70;99.90
10660;DHT22;5378;53.206;13.316;2023-05-02T13:07:59;13.80;99.90
10660;DHT22;5378;53.206;13.316;2023-05-02T13:10:46;13.90;99.90
10660;DHT22;5378;53.206;13.316;2023-05-02T13:13:34;14.00;99.90
10660;DHT22;5378;53.206;13.316;2023-05-02T13:16:21;14.20;99.90
10660;DHT22;5378;53.206;13.316;2023-05-02T13:19:08;14.40;99.90
10660;DHT22;5378;53.206;13.316;2023-05-02T13:21:56;14.60;99.90
10660;DHT22;5378;53.206;13.316;2023-05-02T13:24:44;14.60;99.90
10660;DHT22;5378;53.206;13.316;2023-05-02T13:27:32;14.70;99.90
10660;DHT22;5378;53.206;13.316;2023-05-02T13:30:19;14.60;99.90
10660;DHT22;5378;53.206;13.316;2023-05-02T13:33:06;14.70;99.90
10660;DHT22;5378;53.206;13.316;2023-05-02T13:35:53;14.70;99.90
10660;DHT22;5378;53.206;13.316;2023-05-02T13:38:42;14.80;99.90
10660;DHT22;5378;53.206;13.316;2023-05-02T13:41:29;14.80;99.90
10660;DHT22;5378;53.206;13.316;2023-05-02T13:44:16;14.70;99.90
10660;DHT22;5378;53.206;13.316;2023-05-02T13:47:04;14.60;99.90
10660;DHT22;5378;53.206;13.316;2023-05-02T13:49:52;14.70;99.90
10660;DHT22;5378;53.206;13.316;2023-05-02T13:52:39;14.80;99.90
10660;DHT22;5378;53.206;13.316;2023-05-02T13:55:27;14.90;99.90
10660;DHT22;5378;53.206;13.316;2023-05-02T13:58:14;14.80;99.90
10660;DHT22;5378;53.206;13.316;2023-05-02T14:01:01;14.80;99.90
10660;DHT22;5378;53.206;13.316;2023-05-02T14:03:49;14.70;99.90
10660;DHT22;5378;53.206;13.316;2023-05-02T14:06:36;14.70;99.90
10660;DHT22;5378;53.206;13.316;2023-05-02T14:09:23;14.70;99.90
10660;DHT22;5378;53.206;13.316;2023-05-02T14:12:11;14.70;99.90
10660;DHT22;5378;53.206;13.316;2023-05-02T14:14:58;14.90;99.90
10660;DHT22;5378;53.206;13.316;2023-05-02T14:17:46;15.20;99.90
10660;DHT22;5378;53.206;13.316;2023-05-02T14:20:33;15.20;99.90
10660;DHT22;5378;53.206;13.316;2023-05-02T14:23:20;15.20;99.90
10660;DHT22;5378;53.206;13.316;2023-05-02T14:26:07;14.80;99.90
10660;DHT22;5378;53.206;13.316;2023-05-02T14:28:55;14.50;99.90
10660;DHT22;5378;53.206;13.316;2023-05-02T14:31:43;14.20;99.90
10660;DHT22;5378;53.206;13.316;2023-05-02T14:34:31;14.10;99.90
10660;DHT22;5378;53.206;13.316;2023-05-02T14:37:18;14.10;99.90
10660;DHT22;5378;53.206;13.316;2023-05-02T14:40:06;14.00;99.90
10660;DHT22;5378;53.206;13.316;2023-05-02T14:42:53;14.10;99.90
10660;DHT22;5378;53.206;13.316;2023-05-02T14:45:42;14.20;99.90
10660;DHT22;5378;53.206;13.316;2023-05-02T14:48:29;14.10;99.90
10660;DHT22;5378;53.206;13.316;2023-05-02T14:51:16;14.00;99.90
10660;DHT22;5378;53.206;13.316;2023-05-02T14:54:03;14.00;99.90
10660;DHT22;5378;53.206;13.316;2023-05-02T14:56:50;14.10;99.90
10660;DHT22;5378;53.206;13.316;2023-05-02T14:59:38;14.20;99.90
10660;DHT22;5378;53.206;13.316;2023-05-02T15:02:27;14.40;99.90
10660;DHT22;5378;53.206;13.316;2023-05-02T15:05:14;14.30;99.60
10660;DHT22;5378;53.206;13.316;2023-05-02T15:08:00;14.30;99.90
10660;DHT22;5378;53.206;13.316;2023-05-02T15:10:47;14.40;99.90
10660;DHT22;5378;53.206;13.316;2023-05-02T15:13:34;14.50;99.90
10660;DHT22;5378;53.206;13.316;2023-05-02T15:16:22;14.60;99.30
10660;DHT22;5378;53.206;13.316;2023-05-02T15:19:10;14.60;99.60
10660;DHT22;5378;53.206;13.316;2023-05-02T15:21:57;14.70;99.00
10660;DHT22;5378;53.206;13.316;2023-05-02T15:24:43;14.70;97.90
10660;DHT22;5378;53.206;13.316;2023-05-02T15:27:30;14.40;98.20
10660;DHT22;5378;53.206;13.316;2023-05-02T15:30:17;14.30;99.40
10660;DHT22;5378;53.206;13.316;2023-05-02T15:33:07;14.30;99.90
10660;DHT22;5378;53.206;13.316;2023-05-02T15:35:56;14.00;99.80
10660;DHT22;5378;53.206;13.316;2023-05-02T15:38:44;13.60;99.90
10660;DHT22;5378;53.206;13.316;2023-05-02T15:41:31;13.50;99.90
10660;DHT22;5378;53.206;13.316;2023-05-02T15:44:18;13.30;99.90
10660;DHT22;5378;53.206;13.316;2023-05-02T15:47:06;13.30;99.90
10660;DHT22;5378;53.206;13.316;2023-05-02T15:49:53;13.60;99.80
10660;DHT22;5378;53.206;13.316;2023-05-02T15:52:41;13.60;99.90
10660;DHT22;5378;53.206;13.316;2023-05-02T15:55:29;13.60;99.90
10660;DHT22;5378;53.206;13.316;2023-05-02T15:58:17;13.50;99.90
10660;DHT22;5378;53.206;13.316;2023-05-02T16:01:04;13.50;99.50
10660;DHT22;5378;53.206;13.316;2023-05-02T16:03:51;13.40;99.90
10660;DHT22;5378;53.206;13.316;2023-05-02T16:06:38;13.50;99.90
10660;DHT22;5378;53.206;13.316;2023-05-02T16:09:27;13.60;99.90
10660;DHT22;5378;53.206;13.316;2023-05-02T16:12:15;13.80;98.60
10660;DHT22;5378;53.206;13.316;2023-05-02T16:15:03;13.90;99.50
10660;DHT22;5378;53.206;13.316;2023-05-02T16:17:51;14.00;98.40
10660;DHT22;5378;53.206;13.316;2023-05-02T16:20:38;14.00;98.40
10660;DHT22;5378;53.206;13.316;2023-05-02T16:23:25;13.90;99.20
10660;DHT22;5378;53.206;13.316;2023-05-02T16:26:13;13.70;99.10
10660;DHT22;5378;53.206;13.316;2023-05-02T16:29:00;13.60;98.90
10660;DHT22;5378;53.206;13.316;2023-05-02T16:31:47;13.70;98.80
10660;DHT22;5378;53.206;13.316;2023-05-02T16:34:34;13.70;98.30
10660;DHT22;5378;53.206;13.316;2023-05-02T16:37:21;13.70;99.10
10660;DHT22;5378;53.206;13.316;2023-05-02T16:40:09;13.80;97.00
10660;DHT22;5378;53.206;13.316;2023-05-02T16:42:58;13.90;96.90
10660;DHT22;5378;53.206;13.316;2023-05-02T16:45:45;13.80;97.10
10660;DHT22;5378;53.206;13.316;2023-05-02T16:48:33;13.90;97.00
10660;DHT22;5378;53.206;13.316;2023-05-02T16:51:20;13.80;97.90
10660;DHT22;5378;53.206;13.316;2023-05-02T16:54:07;13.70;98.20
10660;DHT22;5378;53.206;13.316;2023-05-02T16:56:55;13.50;98.10
10660;DHT22;5378;53.206;13.316;2023-05-02T16:59:45;13.50;98.10
10660;DHT22;5378;53.206;13.316;2023-05-02T17:02:32;13.40;98.30
10660;DHT22;5378;53.206;13.316;2023-05-02T17:05:19;13.40;98.00
10660;DHT22;5378;53.206;13.316;2023-05-02T17:08:07;13.40;96.90
10660;DHT22;5378;53.206;13.316;2023-05-02T17:10:54;13.30;97.40
10660;DHT22;5378;53.206;13.316;2023-05-02T17:13:42;13.20;98.50
10660;DHT22;5378;53.206;13.316;2023-05-02T17:16:30;13.20;99.20
10660;DHT22;5378;53.206;13.316;2023-05-02T17:19:17;13.10;98.70
10660;DHT22;5378;53.206;13.316;2023-05-02T17:22:05;13.20;98.60
10660;DHT22;5378;53.206;13.316;2023-05-02T17:24:52;13.00;98.80
10660;DHT22;5378;53.206;13.316;2023-05-02T17:27:40;12.80;99.50
10660;DHT22;5378;53.206;13.316;2023-05-02T17:30:26;12.80;99.80
10660;DHT22;5378;53.206;13.316;2023-05-02T17:33:15;12.80;99.40
10660;DHT22;5378;53.206;13.316;2023-05-02T17:36:02;12.80;99.90
10660;DHT22;5378;53.206;13.316;2023-05-02T17:38:50;12.70;99.90
10660;DHT22;5378;53.206;13.316;2023-05-02T17:41:37;12.70;99.90
10660;DHT22;5378;53.206;13.316;2023-05-02T17:44:24;12.70;99.90
10660;DHT22;5378;53.206;13.316;2023-05-02T17:47:11;12.80;99.90
10660;DHT22;5378;53.206;13.316;2023-05-02T17:49:59;12.60;99.90